Pagrindinis puslapis
METAR-TAF:

METAR-TAF

Oro uostai :

Kalėdų sala, Australija

platuma: 10-26S, ilguma: 105-41E, Aukštis: 279 m

Dabartinis oras

Ataskaita buvo paskelbta 16 minutes, ne 20:30 UTC
Vėjas 12 kt iš Pietryčių
Temperatūra 22°C
Drėgmė 88%
Slėgis 1015 hPa
Su prošvaistėmis ne aukštis 1300 ft

METAR: YPXM 202030Z AUTO 13012KT //// // BKN013 22/20 Q1015 RF00.0/000.2 PRESENT WEATHER SENSOR US

Laikas: 03:46 (20:46 UTC)

Prognozė

Ataskaita buvo paskelbta 3 valandos ir 43 minutes, ne 17:03 UTC
Prognozė galioja nuo 20 metu 17 UTC su 21 metu 12 UTC
Vėjas 14 kt iš Rytų/Pietryčių
Matomumas 10 km arba daugiau
Su prošvaistėmis ne aukštis 1500 ft
Laikinai
nuo 20 metu 17 UTC su 21 metu 12 UTC
Matomumas 10 km arba daugiau
Su prošvaistėmis ne aukštis 1200 ft

TAF: YPXM 201703Z 2017/2112 12014KT 9999 BKN015 TEMPO 2017/2112 9999 BKN012

Orai ataskaitas ir orų prognozės (METAR, TAF).

turimą stotys yra geltonos ir raudonos taškus žemėlapyje.

Perkelti pele per norėdami pamatyti stoties vardą.

Tada spustelėkite, norėdami matyti oro stebėjimo ir prognozės.

Norėdami pakeisti žemėlapį: spustelėkite ant žalios mygtukų su juodo kryžiaus žemyn,; žalią mygtuką su brūkšneliu, jei norite nutolinti; arba žalių rodyklių gretimoms žemėlapius.


METAR-TAF: